createdAt,value
2023-03-26T00:02:47.483Z,8.75
2023-03-26T00:07:51.587Z,8.73
2023-03-26T00:12:54.097Z,8.73
2023-03-26T00:17:56.988Z,8.68
2023-03-26T00:23:02.391Z,8.68
2023-03-26T00:28:06.221Z,8.65
2023-03-26T00:33:11.730Z,8.61
2023-03-26T00:38:16.054Z,8.60
2023-03-26T00:43:19.809Z,8.59
2023-03-26T00:48:31.512Z,8.59
2023-03-26T00:53:42.769Z,8.60
2023-03-26T00:58:46.010Z,8.60
2023-03-26T01:04:04.919Z,8.62
2023-03-26T01:09:16.876Z,8.64
2023-03-26T01:14:23.448Z,8.63
2023-03-26T01:19:30.390Z,8.64
2023-03-26T01:24:34.258Z,8.63
2023-03-26T01:29:44.016Z,8.63
2023-03-26T01:34:57.360Z,8.60
2023-03-26T01:40:06.939Z,8.60
2023-03-26T01:45:14.355Z,8.59
2023-03-26T01:50:17.129Z,8.58
2023-03-26T01:55:22.886Z,8.58
2023-03-26T02:00:30.298Z,8.56
2023-03-26T02:05:37.823Z,8.54
2023-03-26T02:10:45.004Z,8.52
2023-03-26T02:15:57.075Z,8.53
2023-03-26T02:20:59.749Z,8.52
2023-03-26T02:26:06.765Z,8.56
2023-03-26T02:31:11.133Z,8.57
2023-03-26T02:36:14.709Z,8.56
2023-03-26T02:41:18.633Z,8.56
2023-03-26T02:46:21.353Z,8.55
2023-03-26T02:51:25.141Z,8.54
2023-03-26T02:56:29.739Z,8.54
2023-03-26T03:01:34.734Z,8.54
2023-03-26T03:06:38.206Z,8.55
2023-03-26T03:11:42.376Z,8.52
2023-03-26T03:16:45.297Z,8.52
2023-03-26T03:21:47.851Z,8.51
2023-03-26T03:26:56.736Z,8.50
2023-03-26T03:32:00.064Z,8.47
2023-03-26T03:37:02.586Z,8.45
2023-03-26T03:42:06.483Z,8.44
2023-03-26T03:47:13.505Z,8.41
2023-03-26T03:52:16.335Z,8.39
2023-03-26T03:57:21.905Z,8.38
2023-03-26T04:02:30.254Z,8.37
2023-03-26T04:07:34.112Z,8.34
2023-03-26T04:12:38.040Z,8.36
2023-03-26T04:17:42.915Z,8.35
2023-03-26T04:22:45.791Z,8.33
2023-03-26T04:27:49.942Z,8.34
2023-03-26T04:32:53.071Z,8.37
2023-03-26T04:37:56.243Z,8.37
2023-03-26T04:43:02.267Z,8.37
2023-03-26T04:48:07.246Z,8.32
2023-03-26T04:53:13.941Z,8.32
2023-03-26T04:58:18.411Z,8.35
2023-03-26T05:03:21.184Z,8.37
2023-03-26T05:08:23.734Z,8.36
2023-03-26T05:13:27.631Z,8.34
2023-03-26T05:18:32.230Z,8.28
2023-03-26T05:23:34.728Z,8.27
2023-03-26T05:28:38.610Z,8.21
2023-03-26T05:33:41.210Z,8.12
2023-03-26T05:38:47.243Z,8.07
2023-03-26T05:43:51.165Z,8.03
2023-03-26T05:48:53.938Z,8.00
2023-03-26T05:53:56.459Z,8.07
2023-03-26T05:59:00.417Z,8.11
2023-03-26T06:04:03.011Z,8.02
2023-03-26T06:09:06.587Z,7.97
2023-03-26T06:14:10.420Z,7.97
2023-03-26T06:19:12.946Z,7.97
2023-03-26T06:24:16.446Z,7.98
2023-03-26T06:29:20.849Z,8.04
2023-03-26T06:34:23.340Z,8.04
2023-03-26T06:39:26.308Z,8.03
2023-03-26T06:44:30.330Z,8.09
2023-03-26T06:49:34.298Z,8.12
2023-03-26T06:54:36.832Z,8.07
2023-03-26T06:59:40.680Z,8.01
2023-03-26T07:04:43.170Z,7.91
2023-03-26T07:09:45.654Z,7.83
2023-03-26T07:14:49.716Z,7.86
2023-03-26T07:19:53.239Z,7.86
2023-03-26T07:24:56.566Z,7.92
2023-03-26T07:30:06.439Z,7.92
2023-03-26T07:35:15.547Z,7.92
2023-03-26T07:40:29.419Z,7.82
2023-03-26T07:45:39.676Z,7.87
2023-03-26T07:50:42.802Z,7.83
2023-03-26T07:55:53.397Z,7.89
2023-03-26T08:01:03.838Z,8.03
2023-03-26T08:06:14.899Z,8.14
2023-03-26T08:11:31.082Z,8.20
2023-03-26T08:16:42.752Z,8.25
2023-03-26T08:21:51.523Z,8.29
2023-03-26T08:27:01.580Z,8.28
2023-03-26T08:32:13.739Z,8.37
2023-03-26T08:37:16.340Z,8.25
2023-03-26T08:42:39.860Z,8.26
2023-03-26T08:48:21.965Z,8.26
2023-03-26T08:53:59.032Z,8.17
2023-03-26T08:59:34.804Z,8.24
2023-03-26T09:04:58.996Z,8.14
2023-03-26T09:10:33.273Z,8.18
2023-03-26T09:15:49.970Z,8.25
2023-03-26T09:21:19.071Z,8.27
2023-03-26T09:26:40.198Z,8.33
2023-03-26T09:32:15.905Z,8.36
2023-03-26T09:37:26.570Z,8.30
2023-03-26T09:42:43.693Z,8.49
2023-03-26T09:48:19.948Z,8.76
2023-03-26T09:53:41.320Z,8.87
2023-03-26T09:59:05.134Z,8.85
2023-03-26T10:04:48.526Z,8.59
2023-03-26T10:10:00.707Z,8.59
2023-03-26T10:15:18.981Z,8.94
2023-03-26T10:20:33.580Z,8.99
2023-03-26T10:25:50.461Z,9.19
2023-03-26T10:31:08.707Z,9.10
2023-03-26T10:36:26.861Z,9.01
2023-03-26T10:41:38.519Z,9.30
2023-03-26T10:46:58.552Z,9.56
2023-03-26T10:52:04.725Z,9.87
2023-03-26T10:57:15.772Z,10.04
2023-03-26T11:02:29.710Z,10.19
2023-03-26T11:07:41.581Z,10.54
2023-03-26T11:12:48.254Z,10.95
2023-03-26T11:18:01.996Z,10.86
2023-03-26T11:23:24.900Z,10.52
2023-03-26T11:28:38.903Z,10.34
2023-03-26T11:33:47.823Z,10.67
2023-03-26T11:38:51.800Z,11.05
2023-03-26T11:43:58.510Z,11.32
2023-03-26T11:49:09.107Z,11.34
2023-03-26T11:54:13.248Z,11.42
2023-03-26T11:59:21.257Z,11.72
2023-03-26T12:04:34.929Z,12.07
2023-03-26T12:09:37.544Z,12.34
2023-03-26T12:14:43.834Z,12.58
2023-03-26T12:19:48.059Z,12.74
2023-03-26T12:25:02.741Z,12.27
2023-03-26T12:30:13.812Z,12.09
2023-03-26T12:35:20.000Z,11.81
2023-03-26T12:40:31.618Z,11.38
2023-03-26T12:45:40.868Z,11.47
2023-03-26T12:51:00.208Z,11.74
2023-03-26T12:56:12.557Z,11.73
2023-03-26T13:01:23.266Z,11.06
2023-03-26T13:06:59.154Z,10.47
2023-03-26T13:12:10.995Z,10.40
2023-03-26T13:17:20.893Z,10.39
2023-03-26T13:22:32.524Z,10.37
2023-03-26T13:27:42.933Z,10.12
2023-03-26T13:32:58.598Z,9.93
2023-03-26T13:38:10.460Z,10.01
2023-03-26T13:43:38.977Z,9.91
2023-03-26T13:48:47.931Z,9.98
2023-03-26T13:53:56.772Z,9.89
2023-03-26T13:59:04.068Z,9.68
2023-03-26T14:04:15.967Z,9.97
2023-03-26T14:09:25.111Z,9.96
2023-03-26T14:14:34.683Z,10.09
2023-03-26T14:19:55.799Z,10.20
2023-03-26T14:25:14.233Z,10.67
2023-03-26T14:30:44.039Z,10.66
2023-03-26T14:35:59.042Z,10.11
2023-03-26T14:41:20.800Z,10.08
2023-03-26T14:46:37.883Z,9.89
2023-03-26T14:51:55.050Z,9.81
2023-03-26T14:57:27.066Z,9.46
2023-03-26T15:03:03.073Z,9.61
2023-03-26T15:08:54.129Z,9.64
2023-03-26T15:14:11.933Z,9.45
2023-03-26T15:19:56.034Z,9.32
2023-03-26T15:25:31.805Z,9.24
2023-03-26T15:31:16.502Z,8.99
2023-03-26T15:36:50.957Z,8.95
2023-03-26T15:41:59.309Z,8.77
2023-03-26T15:47:27.422Z,8.65
2023-03-26T15:52:36.377Z,8.58
2023-03-26T15:57:43.907Z,8.56
2023-03-26T16:02:58.109Z,8.70
2023-03-26T16:08:08.541Z,8.79
2023-03-26T16:13:38.942Z,8.61
2023-03-26T16:18:43.953Z,8.46
2023-03-26T16:23:55.077Z,8.44
2023-03-26T16:29:14.104Z,8.35
2023-03-26T16:34:28.354Z,8.42
2023-03-26T16:39:42.148Z,8.38
2023-03-26T16:44:51.670Z,8.34
2023-03-26T16:50:09.612Z,8.28
2023-03-26T16:55:20.981Z,8.19
2023-03-26T17:00:36.550Z,8.14
2023-03-26T17:05:56.880Z,8.13
2023-03-26T17:11:06.177Z,8.10
2023-03-26T17:16:18.147Z,7.97
2023-03-26T17:21:46.015Z,7.91
2023-03-26T17:26:58.580Z,7.87
2023-03-26T17:32:08.505Z,7.75
2023-03-26T17:37:31.432Z,7.72
2023-03-26T17:42:37.448Z,7.65
2023-03-26T17:47:44.861Z,7.55
2023-03-26T17:52:57.386Z,7.44
2023-03-26T17:58:02.049Z,7.30
2023-03-26T18:03:12.784Z,7.23
2023-03-26T18:08:41.229Z,7.20
2023-03-26T18:14:23.305Z,7.19
2023-03-26T18:19:26.576Z,7.12
2023-03-26T18:24:34.396Z,7.08
2023-03-26T18:29:38.040Z,6.99
2023-03-26T18:34:49.787Z,6.90
2023-03-26T18:40:02.258Z,6.83
2023-03-26T18:45:09.481Z,6.77
2023-03-26T18:50:16.504Z,6.74
2023-03-26T18:55:20.769Z,6.64
2023-03-26T19:00:26.079Z,6.59
2023-03-26T19:05:29.305Z,6.56
2023-03-26T19:10:34.407Z,6.55
2023-03-26T19:15:36.943Z,6.57
2023-03-26T19:20:43.913Z,6.60
2023-03-26T19:25:50.629Z,6.63
2023-03-26T19:30:57.448Z,6.62
2023-03-26T19:36:05.183Z,6.61
2023-03-26T19:41:21.671Z,6.55
2023-03-26T19:46:25.480Z,6.42
2023-03-26T19:51:33.621Z,6.28
2023-03-26T19:56:37.484Z,6.22
2023-03-26T20:01:40.269Z,6.21
2023-03-26T20:06:44.308Z,6.19
2023-03-26T20:11:48.355Z,6.13
2023-03-26T20:16:51.210Z,6.05
2023-03-26T20:21:54.578Z,5.92
2023-03-26T20:26:58.445Z,5.80
2023-03-26T20:32:01.116Z,5.72
2023-03-26T20:37:04.082Z,5.65
2023-03-26T20:42:08.313Z,5.56
2023-03-26T20:47:12.619Z,5.47
2023-03-26T20:52:16.017Z,5.36
2023-03-26T20:57:20.173Z,5.32
2023-03-26T21:02:23.401Z,5.33
2023-03-26T21:07:26.028Z,5.33
2023-03-26T21:12:32.506Z,5.33
2023-03-26T21:17:36.288Z,5.36
2023-03-26T21:22:46.034Z,5.35
2023-03-26T21:28:02.308Z,5.33
2023-03-26T21:33:05.439Z,5.31
2023-03-26T21:38:09.334Z,5.25
2023-03-26T21:43:13.793Z,5.20
2023-03-26T21:48:16.892Z,5.12
2023-03-26T21:53:19.908Z,5.03
2023-03-26T21:58:41.773Z,4.98
2023-03-26T22:03:55.956Z,4.87
2023-03-26T22:08:59.359Z,4.75
2023-03-26T22:14:03.217Z,4.59
2023-03-26T22:19:07.195Z,4.49
2023-03-26T22:24:09.729Z,4.35
2023-03-26T22:29:14.074Z,4.28
2023-03-26T22:34:16.670Z,4.21
2023-03-26T22:39:19.158Z,4.09
2023-03-26T22:44:22.991Z,4.02
2023-03-26T22:49:27.413Z,3.97
2023-03-26T22:54:29.930Z,3.90
2023-03-26T22:59:33.796Z,3.83
2023-03-26T23:04:37.575Z,3.75
2023-03-26T23:09:40.185Z,3.70
2023-03-26T23:14:44.015Z,3.58
2023-03-26T23:19:46.708Z,3.54
2023-03-26T23:24:49.383Z,3.43
2023-03-26T23:29:53.334Z,3.34
2023-03-26T23:34:56.344Z,3.30
2023-03-26T23:40:00.405Z,3.28
2023-03-26T23:45:04.378Z,3.25
2023-03-26T23:50:08.054Z,3.26
2023-03-26T23:55:10.831Z,3.30
